Terminal Aerodrome Forecast
Issued by NWS Cleveland, OH

Home | Current Version | Previous Version | Graphics & Text | Print | Product List | Glossary Off
Versions: 1 2 3 4 5 6 7 8 9 10 11 12 13 14 15 16 17 18 19 20

167
FTUS41 KCLE 021303 AAA
TAFTOL
TAF AMD
KTOL 021303Z 0213/0312 04010KT 5SM BR OVC012
      TEMPO 0213/0216 2SM BR OVC007
     FM021600 06007KT P6SM OVC015
     FM030100 VRB03KT P6SM OVC035
     FM030800 VRB02KT P6SM SCT250
     FM030900 VRB02KT 6SM BR SKC=

USA.gov is the U.S. government's official web portal to all federal, state and local government web resources and services.